Time;durP1;ratioP1;P1;durP2;ratioP2;P2;SDS_P1;SDS_P2;PMS_P1;PMS_P2;Temp;Humidity;BMP_temperature;BMP_pressure;BME280_temperature;BME280_humidity;BME280_pressure;Samples;Min_cycle;Max_cycle;Signal;HPM_P1;HPM_P2
2021/12/24 00:00:19;;;;;;;78.13;61.13;;;;;;;1.54;100.00;99774.84;6124777;23;20010;-95
2021/12/24 00:02:54;;;;;;;76.55;60.70;;;;;;;1.78;100.00;99793.28;6097730;23;20014;-94
2021/12/24 00:10:39;;;;;;;83.80;60.60;;;;;;;1.86;100.00;99801.69;6118847;23;20018;-94
2021/12/24 00:13:19;;;;;;;86.85;61.38;;;;;;;1.83;100.00;99794.09;6094152;23;19994;-95
2021/12/24 00:16:05;;;;;;;79.05;60.95;;;;;;;1.75;100.00;99775.53;6071785;23;20014;-91
2021/12/24 00:18:43;;;;;;;86.20;61.20;;;;;;;1.83;100.00;99783.97;6093352;23;20093;-94
2021/12/24 00:40:56;;;;;;;72.55;58.67;;;;;;;1.97;100.00;99772.00;6149802;23;20022;-95
2021/12/24 01:53:33;;;;;;;72.43;58.70;;;;;;;2.66;100.00;99762.00;6152482;23;20022;-92
2021/12/24 01:56:04;;;;;;;65.15;57.13;;;;;;;2.88;100.00;99790.53;6122660;23;20092;-93
2021/12/24 01:58:47;;;;;;;68.97;57.85;;;;;;;2.85;100.00;99788.00;6121895;23;20009;-93
2021/12/24 02:01:25;;;;;;;64.85;57.10;;;;;;;2.48;100.00;99735.97;6120775;23;20057;-91
2021/12/24 02:04:14;;;;;;;67.53;56.45;;;;;;;2.59;100.00;99753.59;6124688;23;20005;-93
2021/12/24 02:06:58;;;;;;;70.20;57.63;;;;;;;2.54;100.00;99724.88;6123694;23;20046;-93
2021/12/24 02:10:19;;;;;;;67.10;58.15;;;;;;;2.70;100.00;99753.47;6125324;23;20096;-93
2021/12/24 02:13:08;;;;;;;65.90;58.05;;;;;;;2.84;100.00;99766.84;6149321;23;19994;-94
2021/12/24 02:29:48;;;;;;;66.82;56.53;;;;;;;2.67;100.00;99711.19;6161628;23;20028;-94
2021/12/24 02:32:32;;;;;;;72.30;58.30;;;;;;;2.94;100.00;99749.78;6107521;23;20018;-95
2021/12/24 02:59:36;;;;;;;60.38;54.10;;;;;;;2.78;100.00;99678.00;6174989;23;20001;-96
2021/12/24 03:07:58;;;;;;;61.45;55.22;;;;;;;2.96;100.00;99720.13;6164145;23;20005;-96
2021/12/24 03:25:31;;;;;;;63.65;55.58;;;;;;;3.14;100.00;99730.91;6141166;23;20025;-92
2021/12/24 03:35:12;;;;;;;61.55;55.00;;;;;;;2.92;100.00;99670.22;6141584;23;20006;-92
2021/12/24 03:43:44;;;;;;;63.22;55.92;;;;;;;2.95;100.00;99665.09;6154375;23;20014;-92
2021/12/24 03:52:36;;;;;;;61.78;55.20;;;;;;;2.98;100.00;99659.13;6123984;23;19998;-93
2021/12/24 03:55:10;;;;;;;76.63;60.30;;;;;;;3.20;100.00;99690.16;6131369;23;20029;-94
2021/12/24 03:57:44;;;;;;;63.08;56.30;;;;;;;3.26;100.00;99703.59;6132982;23;19998;-94
2021/12/24 04:00:25;;;;;;;62.58;54.55;;;;;;;3.13;100.00;99665.69;6133737;23;19997;-92
2021/12/24 04:02:51;;;;;;;63.33;55.67;;;;;;;3.26;100.00;99710.34;6133144;23;20025;-92
2021/12/24 04:05:17;;;;;;;59.93;53.77;;;;;;;2.91;100.00;99663.44;6133576;23;20009;-92
2021/12/24 04:07:42;;;;;;;62.42;55.67;;;;;;;3.10;100.00;99674.16;6133882;23;20073;-92
2021/12/24 04:10:25;;;;;;;63.23;56.30;;;;;;;3.25;100.00;99699.38;6133371;23;19998;-92
2021/12/24 04:12:51;;;;;;;61.88;54.92;;;;;;;2.95;100.00;99657.47;6136241;23;20045;-91
2021/12/24 04:15:17;;;;;;;61.40;54.75;;;;;;;3.13;100.00;99688.56;6132509;23;19998;-92
2021/12/24 04:17:44;;;;;;;62.55;55.55;;;;;;;2.98;100.00;99670.13;6132353;23;20025;-92
2021/12/24 04:25:25;;;;;;;65.35;57.25;;;;;;;3.18;100.00;99699.47;6144759;23;20081;-91
2021/12/24 04:27:52;;;;;;;62.65;55.85;;;;;;;3.12;100.00;99697.88;6119998;23;20001;-92
2021/12/24 04:30:23;;;;;;;62.28;55.67;;;;;;;2.94;100.00;99676.09;6122389;23;20421;-92
2021/12/24 04:32:56;;;;;;;66.75;55.45;;;;;;;3.13;100.00;99701.25;6122701;23;20002;-91
2021/12/24 04:51:19;;;;;;;59.58;53.55;;;;;;;3.42;100.00;99742.34;6148868;23;20028;-91
2021/12/24 05:02:27;;;;;;;58.28;52.25;;;;;;;3.43;100.00;99744.00;6150471;23;20044;-91
2021/12/24 05:05:01;;;;;;;59.65;53.30;;;;;;;3.32;100.00;99717.06;6123458;23;20006;-91
2021/12/24 05:08:02;;;;;;;60.00;54.00;;;;;;;3.40;100.00;99733.88;6121082;23;20002;-91
2021/12/24 05:10:24;;;;;;;59.28;53.30;;;;;;;3.42;100.00;99716.91;6147455;23;20009;-91
2021/12/24 05:12:49;;;;;;;59.60;53.50;;;;;;;3.48;100.00;99721.03;6127219;23;19997;-91
2021/12/24 05:15:15;;;;;;;58.10;52.40;;;;;;;3.55;100.00;99747.25;6131642;23;20053;-93
2021/12/24 05:18:04;;;;;;;59.73;53.73;;;;;;;3.58;100.00;99753.09;6133948;23;20009;-92
2021/12/24 05:23:14;;;;;;;58.97;53.17;;;;;;;3.49;100.00;99767.66;6159476;23;20005;-92
2021/12/24 05:25:44;;;;;;;59.23;53.27;;;;;;;3.44;100.00;99763.47;6132470;23;19998;-91
2021/12/24 05:28:09;;;;;;;60.40;54.10;;;;;;;3.53;100.00;99765.06;6132653;23;20002;-91
2021/12/24 05:30:35;;;;;;;61.30;55.10;;;;;;;3.32;100.00;99730.59;6122640;23;20016;-92
2021/12/24 05:33:00;;;;;;;60.20;54.10;;;;;;;3.26;100.00;99731.56;6119725;23;20404;-92
2021/12/24 05:35:26;;;;;;;61.43;55.13;;;;;;;3.55;100.00;99768.41;6117678;23;20016;-91
2021/12/24 05:37:51;;;;;;;59.77;53.67;;;;;;;3.58;100.00;99772.59;6118418;23;20156;-92
2021/12/24 05:40:16;;;;;;;63.40;55.67;;;;;;;3.28;100.00;99734.06;6117776;23;20318;-91
2021/12/24 05:42:42;;;;;;;61.20;54.90;;;;;;;3.34;100.00;99738.22;6116987;23;20021;-92
2021/12/24 05:45:10;;;;;;;60.07;53.97;;;;;;;3.13;100.00;99719.88;6116956;23;20064;-92
2021/12/24 05:47:35;;;;;;;58.10;52.50;;;;;;;3.35;100.00;99745.81;6119216;23;20002;-92
2021/12/24 05:50:01;;;;;;;58.60;53.07;;;;;;;3.25;100.00;99740.03;6134485;23;20002;-93
2021/12/24 05:52:27;;;;;;;59.40;53.23;;;;;;;3.45;100.00;99770.25;6134355;23;20002;-93
2021/12/24 05:54:53;;;;;;;59.47;53.38;;;;;;;3.38;100.00;99765.28;6124680;23;20471;-92
2021/12/24 05:57:18;;;;;;;59.53;53.23;;;;;;;3.42;100.00;99767.75;6118800;23;20064;-91
2021/12/24 05:59:44;;;;;;;58.10;52.40;;;;;;;3.41;100.00;99767.78;6118304;23;20001;-91
2021/12/24 06:02:09;;;;;;;58.87;52.73;;;;;;;3.36;100.00;99777.19;6116326;23;20001;-91
2021/12/24 06:04:35;;;;;;;57.77;52.07;;;;;;;3.38;100.00;99776.28;6116189;23;19997;-90
2021/12/24 06:07:00;;;;;;;57.97;52.13;;;;;;;3.25;100.00;99762.06;6116799;23;20008;-91
2021/12/24 06:09:26;;;;;;;56.97;51.42;;;;;;;3.13;100.00;99747.00;6116059;23;20033;-91
2021/12/24 06:11:52;;;;;;;59.17;53.08;;;;;;;3.00;100.00;99731.91;6117494;23;20021;-92
2021/12/24 06:14:17;;;;;;;56.73;51.37;;;;;;;3.02;100.00;99745.44;6119964;23;20014;-91
2021/12/24 06:16:58;;;;;;;55.90;50.63;;;;;;;3.17;100.00;99766.44;6133423;23;20049;-92
2021/12/24 06:19:26;;;;;;;56.13;50.63;;;;;;;2.85;100.00;99737.22;6137323;23;19998;-91
2021/12/24 06:21:52;;;;;;;56.75;51.22;;;;;;;2.97;100.00;99749.72;6134341;23;20084;-91
2021/12/24 06:24:19;;;;;;;55.63;50.22;;;;;;;2.92;100.00;99748.97;6133707;23;20010;-92
2021/12/24 06:26:44;;;;;;;54.80;49.78;;;;;;;3.06;100.00;99759.78;6134501;23;20033;-92
2021/12/24 06:29:10;;;;;;;53.83;48.73;;;;;;;3.06;100.00;99779.28;6134354;23;19997;-92
2021/12/24 06:31:35;;;;;;;54.60;49.80;;;;;;;2.99;100.00;99778.53;6133950;23;20247;-92
2021/12/24 06:34:01;;;;;;;53.13;48.47;;;;;;;2.91;100.00;99765.03;6133930;23;20009;-92
2021/12/24 06:36:26;;;;;;;53.58;48.83;;;;;;;2.57;100.00;99740.06;6130106;23;20033;-91
2021/12/24 06:38:52;;;;;;;53.10;48.47;;;;;;;2.71;100.00;99762.78;6120526;23;20017;-92
2021/12/24 06:41:17;;;;;;;53.07;48.27;;;;;;;2.63;100.00;99762.03;6118125;23;19998;-91
2021/12/24 06:43:43;;;;;;;52.37;47.77;;;;;;;2.55;100.00;99757.03;6118899;23;19997;-93
2021/12/24 06:46:12;;;;;;;54.47;49.03;;;;;;;2.71;100.00;99789.00;6134006;23;20040;-93
2021/12/24 06:48:37;;;;;;;54.22;49.17;;;;;;;2.45;100.00;99775.75;6135362;23;20012;-93
2021/12/24 06:51:03;;;;;;;53.13;48.55;;;;;;;2.47;100.00;99784.22;6134808;23;19993;-92
2021/12/24 06:53:29;;;;;;;55.50;50.30;;;;;;;2.51;100.00;99796.00;6134166;23;20021;-92
2021/12/24 06:55:54;;;;;;;53.22;48.65;;;;;;;2.12;100.00;99757.50;6134272;23;20021;-91
2021/12/24 06:58:20;;;;;;;54.23;49.33;;;;;;;2.22;100.00;99769.22;6133858;23;19997;-92
2021/12/24 07:00:45;;;;;;;54.90;49.77;;;;;;;2.19;100.00;99774.31;6133625;23;19993;-92
2021/12/24 07:03:14;;;;;;;54.03;49.07;;;;;;;1.92;100.00;99763.56;6129067;23;20053;-93
2021/12/24 07:05:39;;;;;;;56.03;50.38;;;;;;;2.09;100.00;99783.72;6131025;23;19993;-91
2021/12/24 07:08:05;;;;;;;56.87;51.03;;;;;;;2.25;100.00;99788.66;6131025;23;19996;-92
2021/12/24 07:10:30;;;;;;;55.80;50.53;;;;;;;2.15;100.00;99787.91;6123082;23;20039;-91
2021/12/24 07:12:56;;;;;;;55.13;50.03;;;;;;;2.24;100.00;99808.09;6115152;23;20025;-92
2021/12/24 07:15:22;;;;;;;54.47;49.57;;;;;;;1.80;100.00;99753.56;6140716;23;20478;-91
2021/12/24 07:17:47;;;;;;;56.42;51.10;;;;;;;1.96;100.00;99760.16;6153105;23;20009;-92
2021/12/24 07:20:13;;;;;;;56.10;50.60;;;;;;;1.97;100.00;99759.31;6122414;23;20016;-91
2021/12/24 07:22:38;;;;;;;55.92;50.60;;;;;;;1.95;100.00;99771.16;6114512;23;20009;-92
2021/12/24 07:25:06;;;;;;;53.73;48.90;;;;;;;2.07;100.00;99815.88;6115454;23;20005;-91
2021/12/24 07:27:32;;;;;;;54.78;49.65;;;;;;;2.04;100.00;99827.75;6115322;23;20020;-92
2021/12/24 07:29:57;;;;;;;55.05;50.08;;;;;;;1.79;100.00;99784.81;6116554;23;20009;-91
2021/12/24 07:32:23;;;;;;;54.93;49.73;;;;;;;1.98;100.00;99818.50;6117089;23;20005;-90
2021/12/24 07:34:48;;;;;;;58.87;53.30;;;;;;;2.01;100.00;99831.16;6116074;23;20333;-92
2021/12/24 07:37:13;;;;;;;53.63;48.83;;;;;;;2.12;100.00;99848.81;6115379;23;20006;-91
2021/12/24 07:39:39;;;;;;;55.57;50.20;;;;;;;1.87;100.00;99815.19;6114874;23;20487;-92
2021/12/24 07:42:05;;;;;;;54.63;49.53;;;;;;;1.95;100.00;99844.69;6118432;23;20008;-90
2021/12/24 07:44:33;;;;;;;55.60;50.42;;;;;;;1.94;100.00;99849.78;6122834;23;20001;-90
2021/12/24 07:47:01;;;;;;;55.42;50.20;;;;;;;2.05;100.00;99863.22;6122897;23;20005;-91
2021/12/24 07:52:08;;;;;;;55.50;50.13;;;;;;;1.84;100.00;99823.66;6138638;23;20016;-90
2021/12/24 07:54:43;;;;;;;56.58;50.75;;;;;;;2.03;100.00;99859.03;6114926;23;20010;-90
2021/12/24 07:57:10;;;;;;;55.03;49.90;;;;;;;1.66;100.00;99823.81;6090635;23;20013;-91
2021/12/24 07:59:37;;;;;;;55.88;50.47;;;;;;;1.97;100.00;99860.78;6116506;23;20062;-90
2021/12/24 08:02:06;;;;;;;56.83;51.00;;;;;;;1.95;100.00;99851.47;6118728;23;20001;-90
2021/12/24 08:04:32;;;;;;;54.53;49.45;;;;;;;1.74;100.00;99822.88;6118521;23;20036;-90
2021/12/24 08:07:01;;;;;;;55.08;50.15;;;;;;;1.80;100.00;99837.22;6146295;23;20013;-91
2021/12/24 08:09:26;;;;;;;55.00;49.70;;;;;;;1.90;100.00;99864.19;6120127;23;20009;-90
2021/12/24 08:11:52;;;;;;;54.33;49.23;;;;;;;1.93;100.00;99884.47;6144702;23;20013;-92
2021/12/24 08:14:17;;;;;;;54.50;49.17;;;;;;;1.95;100.00;99874.31;6123961;23;20030;-90
2021/12/24 08:17:22;;;;;;;55.30;49.97;;;;;;;1.98;100.00;99876.81;6129889;23;19994;-90
2021/12/24 08:19:53;;;;;;;56.53;50.78;;;;;;;1.71;100.00;99842.34;6180342;23;20005;-88
2021/12/24 08:23:08;;;;;;;54.67;49.55;;;;;;;1.87;100.00;99869.28;6127716;23;20012;-90
2021/12/24 10:47:18;;;;;;;58.15;52.03;;;;;;;1.45;100.00;99980.22;6161517;23;20014;-84
2021/12/24 10:49:59;;;;;;;55.33;50.10;;;;;;;1.49;100.00;99983.56;6128895;23;20260;-84
2021/12/24 10:53:15;;;;;;;54.40;49.33;;;;;;;1.52;100.00;99975.97;6124505;23;20088;-84
2021/12/24 10:55:18;;;;;;;54.45;49.58;;;;;;;1.61;100.00;99966.63;6127619;23;20068;-84
2021/12/24 10:57:46;;;;;;;54.90;49.90;;;;;;;1.48;100.00;99972.59;6114378;23;20009;-85
2021/12/24 11:00:22;;;;;;;57.58;51.65;;;;;;;1.38;100.00;99958.25;6114370;23;20029;-85
2021/12/24 11:02:51;;;;;;;56.28;50.88;;;;;;;1.57;100.00;99976.78;6114511;23;20008;-84
2021/12/24 11:05:37;;;;;;;56.05;50.75;;;;;;;1.59;100.00;99965.81;6115041;23;20412;-84
2021/12/24 11:08:06;;;;;;;56.50;51.00;;;;;;;1.70;100.00;99967.44;6143997;23;20001;-83
2021/12/24 11:10:37;;;;;;;57.20;51.50;;;;;;;1.62;100.00;99955.66;6143342;23;20009;-85
2021/12/24 11:13:10;;;;;;;55.67;50.47;;;;;;;1.71;100.00;99964.06;6118239;23;19997;-85
2021/12/24 11:15:52;;;;;;;55.75;50.50;;;;;;;1.71;100.00;99964.91;6117212;23;20041;-85
2021/12/24 11:18:20;;;;;;;56.90;51.40;;;;;;;1.73;100.00;99978.41;6117085;23;20065;-84
2021/12/24 11:20:53;;;;;;;57.80;51.90;;;;;;;1.80;100.00;99985.13;6116293;23;20053;-84
2021/12/24 11:23:21;;;;;;;57.45;51.72;;;;;;;1.82;100.00;99997.81;6117586;23;20033;-85
2021/12/24 11:25:55;;;;;;;55.40;50.35;;;;;;;1.70;100.00;99993.63;6116480;23;20009;-84
2021/12/24 11:28:25;;;;;;;58.25;52.03;;;;;;;1.77;100.00;99997.00;6116212;23;20006;-85
2021/12/24 11:30:56;;;;;;;59.17;52.78;;;;;;;1.67;99.43;100006.34;6115870;23;20006;-84
2021/12/24 11:33:25;;;;;;;57.78;52.17;;;;;;;1.73;100.00;100010.53;6115611;23;20025;-84
2021/12/24 11:35:52;;;;;;;56.67;51.30;;;;;;;1.60;99.60;100002.97;6124054;23;20080;-85
2021/12/24 11:38:32;;;;;;;58.08;52.33;;;;;;;1.71;99.98;99990.25;6131733;23;20009;-84
2021/12/24 11:40:58;;;;;;;56.33;51.00;;;;;;;1.64;99.73;100003.81;6132310;23;20054;-85
2021/12/24 11:43:27;;;;;;;56.70;51.30;;;;;;;1.68;99.74;100010.53;6132036;23;20013;-84
2021/12/24 11:45:56;;;;;;;56.40;50.92;;;;;;;1.70;99.95;100018.13;6155972;23;20013;-84
2021/12/24 11:48:21;;;;;;;58.00;52.33;;;;;;;1.40;99.56;100000.50;6131106;23;20019;-85
2021/12/24 11:50:47;;;;;;;59.47;53.30;;;;;;;1.55;99.54;100007.22;6125999;23;20039;-85
2021/12/24 11:53:16;;;;;;;57.17;51.57;;;;;;;1.66;99.84;100017.31;6115922;23;20013;-85
2021/12/24 11:55:48;;;;;;;59.35;53.25;;;;;;;1.41;99.54;99983.59;6117380;23;20052;-84
2021/12/24 11:58:24;;;;;;;58.60;52.53;;;;;;;1.49;99.39;100019.91;6115505;23;20024;-85
2021/12/24 12:00:53;;;;;;;59.78;53.30;;;;;;;1.49;99.76;100014.81;6115385;23;20005;-85
2021/12/24 12:03:40;;;;;;;57.00;51.28;;;;;;;1.59;100.00;100026.66;6114408;23;20012;-84
2021/12/24 12:06:29;;;;;;;60.78;54.03;;;;;;;1.58;99.88;100042.69;6112934;23;20005;-84
2021/12/24 12:08:57;;;;;;;57.47;51.83;;;;;;;1.49;100.00;100041.88;6138076;23;20071;-84
2021/12/24 12:11:26;;;;;;;58.53;52.50;;;;;;;1.55;100.00;100045.22;6113875;23;20491;-84
2021/12/24 12:14:01;;;;;;;59.08;53.15;;;;;;;1.64;100.00;100049.44;6137957;23;20009;-84
2021/12/24 12:16:39;;;;;;;59.03;52.90;;;;;;;1.54;100.00;100047.78;6114870;23;20017;-84
2021/12/24 12:19:11;;;;;;;59.75;53.60;;;;;;;1.57;100.00;100053.66;6138797;23;20009;-83
2021/12/24 12:21:40;;;;;;;58.22;52.05;;;;;;;1.53;99.90;100046.94;6138417;23;20005;-83
2021/12/24 12:26:46;;;;;;;59.47;53.13;;;;;;;1.56;100.00;100062.13;6138572;23;20061;-84
2021/12/24 12:29:22;;;;;;;59.53;53.40;;;;;;;1.56;99.83;100071.41;6113428;23;20456;-84
2021/12/24 12:31:55;;;;;;;59.38;53.40;;;;;;;1.45;99.43;100064.69;6113460;23;20009;-84
2021/12/24 12:34:38;;;;;;;57.53;51.83;;;;;;;1.40;99.25;100075.66;6114392;23;20002;-84
2021/12/24 12:37:22;;;;;;;59.50;53.38;;;;;;;1.53;99.71;100072.28;6135250;23;20348;-85
2021/12/24 12:39:51;;;;;;;61.00;54.38;;;;;;;1.50;99.94;100082.44;6117261;23;20004;-83
2021/12/24 12:42:18;;;;;;;59.92;53.70;;;;;;;1.52;99.83;100070.59;6132969;23;19997;-82
2021/12/24 12:44:51;;;;;;;;;;;;;;;1.57;100.00;100086.63;6132808;23;19998;-83
2021/12/24 12:47:18;;;;;;;60.00;53.45;;;;;;;1.54;100.00;100078.19;6117312;23;19947;-82
2021/12/24 12:49:43;;;;;;;;;;;;;;;1.61;100.00;100090.00;6119868;23;20005;-84
2021/12/24 12:52:20;;;;;;;58.80;52.78;;;;;;;1.68;99.40;100080.69;6118584;23;19930;-84
2021/12/24 12:54:55;;;;;;;61.50;55.35;;;;;;;1.57;99.02;100094.22;6128256;23;20029;-83
2021/12/24 12:57:30;;;;;;;57.95;51.85;;;;;;;1.59;99.81;100101.81;6128492;23;20442;-84
2021/12/24 13:00:08;;;;;;;58.65;52.78;;;;;;;1.34;99.65;100103.59;6130017;23;20052;-83
2021/12/24 13:03:01;;;;;;;58.90;52.92;;;;;;;1.50;99.51;100107.78;6156379;23;20004;-84
2021/12/24 13:05:28;;;;;;;56.92;51.45;;;;;;;1.32;98.90;100110.31;6154330;23;19985;-84
2021/12/24 13:07:59;;;;;;;58.10;52.35;;;;;;;1.30;99.86;100104.41;6132045;23;20001;-85
2021/12/24 13:10:25;;;;;;;58.25;52.63;;;;;;;1.49;99.94;100118.75;6134798;23;20165;-83
2021/12/24 13:12:59;;;;;;;60.03;53.92;;;;;;;1.32;99.26;100107.78;6133593;23;19997;-83
2021/12/24 13:15:27;;;;;;;59.60;53.50;;;;;;;1.20;99.24;100114.53;6133423;23;20013;-84
2021/12/24 13:17:52;;;;;;;58.85;53.08;;;;;;;1.26;99.73;100127.22;6134009;23;20013;-84
2021/12/24 13:20:34;;;;;;;57.43;52.03;;;;;;;1.34;99.25;100131.47;6130314;23;20006;-84
2021/12/24 13:23:02;;;;;;;60.17;54.03;;;;;;;1.27;99.55;100139.06;6128762;23;20001;-83
2021/12/24 13:25:27;;;;;;;58.83;52.78;;;;;;;1.14;100.00;100144.94;6125789;23;20011;-85
2021/12/24 13:27:54;;;;;;;59.57;53.67;;;;;;;1.26;100.00;100155.09;6133207;23;20114;-84
2021/12/24 13:30:26;;;;;;;;;;;;;;;1.35;100.00;100159.34;6134481;23;20009;-84
2021/12/24 13:32:54;;;;;;;59.42;53.22;;;;;;;1.27;100.00;100143.25;6133627;23;19911;-83
2021/12/24 13:35:29;;;;;;;59.45;53.33;;;;;;;1.22;99.39;100158.47;6134087;23;19994;-83
2021/12/24 13:37:55;;;;;;;58.72;52.83;;;;;;;1.12;98.89;100161.00;6133355;23;20021;-85
2021/12/24 13:40:30;;;;;;;60.22;53.97;;;;;;;1.20;99.36;100169.44;6122117;23;20010;-84
2021/12/24 13:42:58;;;;;;;60.83;54.83;;;;;;;1.01;99.36;100181.25;6116601;23;20006;-83
2021/12/24 13:45:25;;;;;;;61.85;55.22;;;;;;;1.16;99.62;100183.81;6116576;23;20010;-84
2021/12/24 13:47:59;;;;;;;60.88;54.60;;;;;;;1.29;99.64;100191.41;6117088;23;20060;-84
2021/12/24 13:54:30;;;;;;;58.95;52.95;;;;;;;1.30;99.21;100196.47;6118372;23;20013;-86
2021/12/24 13:56:03;;;;;;;60.05;53.70;;;;;;;1.32;99.51;100197.34;6143314;23;20013;-84
2021/12/24 13:58:28;;;;;;;59.65;53.60;;;;;;;1.32;99.39;100204.06;6115524;23;20017;-84
2021/12/24 14:00:57;;;;;;;59.60;53.43;;;;;;;1.32;99.53;100204.06;6116408;23;20009;-85
2021/12/24 14:03:28;;;;;;;61.15;54.72;;;;;;;1.34;99.66;100210.84;6116543;23;20001;-84
2021/12/24 14:05:57;;;;;;;61.05;54.35;;;;;;;1.40;99.79;100212.53;6120774;23;20033;-86
2021/12/24 14:08:28;;;;;;;60.17;53.78;;;;;;;1.48;99.04;100212.53;6147305;23;20024;-82
2021/12/24 14:11:11;;;;;;;59.85;53.90;;;;;;;1.34;98.32;100213.38;6124602;23;20032;-83
2021/12/24 14:13:42;;;;;;;60.25;53.72;;;;;;;1.31;97.83;100202.41;6132040;23;20002;-84
2021/12/24 14:16:15;;;;;;;63.78;54.92;;;;;;;1.36;97.62;100211.69;6133865;23;19997;-83
2021/12/24 14:18:53;;;;;;;59.92;53.45;;;;;;;1.23;97.51;100220.97;6125097;23;20036;-86
2021/12/24 14:24:10;;;;;;;59.33;53.03;;;;;;;1.35;97.90;100239.56;6138714;23;20001;-85
2021/12/24 14:26:37;;;;;;;64.45;55.60;;;;;;;1.17;97.47;100246.28;6138720;23;20002;-86
2021/12/24 14:29:05;;;;;;;60.30;53.65;;;;;;;1.06;98.21;100225.16;6142359;23;20061;-84
2021/12/24 14:31:50;;;;;;;62.92;54.60;;;;;;;1.12;97.68;100253.03;6116489;23;20050;-84
2021/12/24 14:34:41;;;;;;;69.30;56.78;;;;;;;1.07;97.96;100247.13;6113695;23;20006;-85
2021/12/24 14:37:27;;;;;;;58.92;52.97;;;;;;;1.17;98.07;100269.09;6114433;23;20080;-84
2021/12/24 14:40:01;;;;;;;59.72;53.30;;;;;;;1.09;97.54;100256.41;6117917;23;20006;-84
2021/12/24 14:42:40;;;;;;;58.83;52.63;;;;;;;1.13;97.58;100272.47;6114839;23;20005;-85
2021/12/24 14:45:12;;;;;;;63.47;54.17;;;;;;;1.23;97.51;100281.78;6139069;23;20001;-84
2021/12/24 14:47:39;;;;;;;59.20;53.05;;;;;;;1.08;96.72;100269.91;6139845;23;20032;-85
2021/12/24 14:50:08;;;;;;;59.60;53.38;;;;;;;1.02;96.35;100271.59;6118965;23;20429;-85
2021/12/24 14:52:34;;;;;;;57.63;51.95;;;;;;;1.11;96.41;100294.41;6116539;23;20057;-83
2021/12/24 14:55:21;;;;;;;55.97;50.67;;;;;;;0.96;96.23;100287.59;6115301;23;20025;-84
2021/12/24 14:57:58;;;;;;;56.10;50.43;;;;;;;1.04;95.91;100295.25;6115255;23;20106;-85
2021/12/24 15:00:25;;;;;;;;;;;;;;;0.96;95.33;100304.50;6115504;23;20294;-84
2021/12/24 15:02:51;;;;;;;57.15;51.28;;;;;;;0.94;95.17;100307.03;6115065;23;19983;-84
2021/12/24 15:05:31;;;;;;;55.87;50.23;;;;;;;0.78;95.28;100310.31;6114968;23;20013;-84
2021/12/24 15:07:57;;;;;;;55.80;49.55;;;;;;;0.94;95.67;100321.34;6115063;23;20072;-85
2021/12/24 15:10:23;;;;;;;55.08;49.65;;;;;;;0.94;94.55;100332.34;6116641;23;20016;-85
2021/12/24 15:12:58;;;;;;;53.72;48.75;;;;;;;0.89;93.44;100334.00;6115409;23;20064;-84
2021/12/24 15:15:25;;;;;;;51.30;46.88;;;;;;;0.72;92.39;100331.41;6116397;23;19998;-84
2021/12/24 15:17:50;;;;;;;52.33;47.50;;;;;;;0.49;92.21;100296.69;6115154;23;20425;-85
2021/12/24 15:20:16;;;;;;;51.37;46.67;;;;;;;0.43;91.41;100295.78;6115718;23;20152;-84
2021/12/24 15:22:41;;;;;;;51.67;47.00;;;;;;;0.81;91.19;100364.38;6115133;23;20011;-83
2021/12/24 15:25:09;;;;;;;49.47;45.30;;;;;;;0.57;90.73;100364.22;6115364;23;20059;-84
2021/12/24 15:27:36;;;;;;;50.35;45.90;;;;;;;0.48;91.69;100334.63;6119572;23;19997;-80
2021/12/24 15:30:06;;;;;;;51.13;46.58;;;;;;;0.65;90.86;100375.22;6134885;23;20005;-83
2021/12/24 15:32:31;;;;;;;50.03;45.50;;;;;;;0.34;90.82;100352.25;6134168;23;19990;-81
2021/12/24 15:34:57;;;;;;;48.97;44.97;;;;;;;0.51;90.15;100386.13;6134409;23;20005;-82
2021/12/24 15:37:22;;;;;;;49.27;45.17;;;;;;;0.42;90.91;100386.03;6134221;23;20002;-82
2021/12/24 15:39:48;;;;;;;48.83;44.77;;;;;;;0.35;89.97;100390.22;6134713;23;19993;-83
2021/12/24 15:42:15;;;;;;;50.47;45.53;;;;;;;0.43;89.87;100395.34;6133047;23;19998;-83
2021/12/24 15:44:45;;;;;;;50.00;45.63;;;;;;;0.42;88.41;100401.22;6134348;23;20020;-82
2021/12/24 15:47:11;;;;;;;49.30;45.17;;;;;;;0.22;88.73;100392.63;6134283;23;20012;-82
2021/12/24 15:49:36;;;;;;;49.60;45.60;;;;;;;0.21;87.20;100385.88;6134290;23;20010;-81
2021/12/24 15:52:02;;;;;;;49.13;45.03;;;;;;;0.23;86.46;100414.56;6133370;23;20020;-83
2021/12/24 15:54:27;;;;;;;49.50;45.00;;;;;;;0.13;86.34;100404.38;6123664;23;20026;-85
2021/12/24 15:56:52;;;;;;;49.77;45.17;;;;;;;0.06;85.96;100406.81;6131217;23;19997;-80
2021/12/24 15:59:18;;;;;;;49.87;45.27;;;;;;;0.04;85.46;100427.03;6133198;23;20009;-82
2021/12/24 16:01:43;;;;;;;48.80;44.72;;;;;;;0.12;84.98;100443.13;6132988;23;20017;-81
2021/12/24 16:04:09;;;;;;;49.27;44.93;;;;;;;0.00;85.50;100440.50;6132984;23;20032;-81
2021/12/24 16:06:34;;;;;;;49.90;45.47;;;;;;;0.06;84.87;100438.00;6133133;23;20109;-82
2021/12/24 16:08:59;;;;;;;50.70;45.93;;;;;;;-0.11;83.34;100429.41;6132603;23;20074;-83
2021/12/24 16:11:25;;;;;;;48.27;44.37;;;;;;;0.05;83.21;100456.56;6131729;23;19997;-83
2021/12/24 16:13:50;;;;;;;50.80;46.03;;;;;;;0.06;83.68;100475.94;6118794;23;20357;-83
2021/12/24 16:16:22;;;;;;;48.13;44.40;;;;;;;-0.03;83.67;100460.69;6111368;23;19998;-84
2021/12/24 16:18:49;;;;;;;48.40;44.55;;;;;;;0.03;83.86;100478.44;6117007;23;20322;-84
2021/12/24 16:21:15;;;;;;;50.75;45.65;;;;;;;0.05;84.01;100484.38;6111448;23;20057;-83
2021/12/24 16:23:41;;;;;;;49.50;44.90;;;;;;;-0.31;81.45;100452.81;6112140;23;20472;-83
2021/12/24 16:26:06;;;;;;;48.25;44.33;;;;;;;-0.14;79.71;100507.75;6112187;23;20009;-84
2021/12/24 16:28:32;;;;;;;47.73;43.93;;;;;;;-0.48;77.35;100474.50;6111322;23;20056;-84
2021/12/24 16:30:57;;;;;;;47.90;43.93;;;;;;;-0.32;76.44;100521.88;6110859;23;20005;-84
2021/12/24 16:33:22;;;;;;;48.20;44.23;;;;;;;-0.33;74.69;100530.31;6115825;23;20080;-84
2021/12/24 16:35:48;;;;;;;48.83;44.70;;;;;;;-0.32;74.81;100537.03;6118165;23;20002;-84
2021/12/24 16:38:13;;;;;;;49.50;45.17;;;;;;;-0.35;76.45;100544.59;6116216;23;19997;-84
2021/12/24 16:40:38;;;;;;;52.33;47.07;;;;;;;-0.39;75.53;100535.28;6114162;23;20037;-84
2021/12/24 16:43:12;;;;;;;49.10;44.70;;;;;;;-0.45;75.71;100530.97;6112474;23;20016;-83
2021/12/24 16:45:39;;;;;;;49.13;44.70;;;;;;;-0.45;74.98;100541.09;6112276;23;20436;-83
2021/12/24 16:48:06;;;;;;;47.97;44.05;;;;;;;-0.53;76.08;100546.88;6137055;23;20016;-83
2021/12/24 16:50:32;;;;;;;48.35;44.30;;;;;;;-0.64;74.26;100545.03;6112234;23;20005;-83
2021/12/24 16:52:59;;;;;;;48.95;44.90;;;;;;;-0.62;73.70;100560.22;6060189;23;20358;-84
2021/12/24 16:55:25;;;;;;;47.40;43.63;;;;;;;-0.75;72.55;100576.88;6108152;23;20039;-84
2021/12/24 16:57:52;;;;;;;47.75;43.90;;;;;;;-0.75;70.92;100587.84;6084778;23;20002;-84
2021/12/24 17:00:18;;;;;;;47.58;43.72;;;;;;;-0.86;69.57;100573.34;6084262;23;20501;-84
2021/12/24 17:02:44;;;;;;;48.78;44.72;;;;;;;-0.73;70.21;100587.88;6083659;23;19998;-85
2021/12/24 17:05:10;;;;;;;48.53;44.55;;;;;;;-0.77;69.02;100591.16;6083960;23;20002;-84
2021/12/24 17:07:35;;;;;;;48.90;44.77;;;;;;;-0.75;69.61;100599.59;6084824;23;20116;-84
2021/12/24 17:10:01;;;;;;;47.97;44.10;;;;;;;-0.81;67.72;100602.03;6085265;23;20031;-83
2021/12/24 17:12:27;;;;;;;47.83;43.97;;;;;;;-0.83;68.78;100618.84;6083672;23;20001;-85
2021/12/24 17:14:58;;;;;;;47.58;43.80;;;;;;;-0.98;67.70;100607.66;6083577;23;20052;-84
2021/12/24 17:17:27;;;;;;;47.38;43.60;;;;;;;-0.92;68.78;100620.41;6085740;23;20338;-84
2021/12/24 17:19:53;;;;;;;47.70;43.90;;;;;;;-1.07;68.44;100620.13;6097410;23;20033;-84
2021/12/24 17:22:19;;;;;;;48.22;44.03;;;;;;;-0.96;68.59;100630.41;6081582;23;20006;-84
2021/12/24 17:24:44;;;;;;;46.37;43.00;;;;;;;-1.01;67.82;100635.38;6082959;23;20013;-83
2021/12/24 17:27:09;;;;;;;47.87;43.87;;;;;;;-1.07;67.33;100640.31;6084098;23;20030;-84
2021/12/24 17:29:35;;;;;;;48.00;43.97;;;;;;;-1.10;67.39;100650.38;6085477;23;20442;-83